createdAt,value
2019-03-08T00:01:54.285Z,1.43
2019-03-08T00:04:23.885Z,1.80
2019-03-08T00:09:51.005Z,1.47
2019-03-08T00:15:17.820Z,1.70
2019-03-08T00:18:01.246Z,2.00
2019-03-08T00:20:47.961Z,1.70
2019-03-08T00:23:26.663Z,1.73
2019-03-08T00:26:06.950Z,1.57
2019-03-08T00:28:47.711Z,1.67
2019-03-08T00:31:33.455Z,1.47
2019-03-08T00:34:16.032Z,1.30
2019-03-08T00:36:59.572Z,1.53
2019-03-08T00:39:46.617Z,1.53
2019-03-08T00:45:09.208Z,2.30
2019-03-08T00:50:37.075Z,2.43
2019-03-08T00:55:57.033Z,3.30
2019-03-08T00:58:40.387Z,3.67
2019-03-08T01:01:25.756Z,3.60
2019-03-08T01:06:44.448Z,4.60
2019-03-08T01:12:13.857Z,4.30
2019-03-08T01:15:02.111Z,4.33
2019-03-08T01:17:48.975Z,4.03
2019-03-08T01:20:27.472Z,4.80
2019-03-08T01:23:00.208Z,4.10
2019-03-08T01:26:06.508Z,4.07
2019-03-08T01:28:40.790Z,3.93
2019-03-08T01:31:07.181Z,3.90
2019-03-08T01:33:56.733Z,3.53
2019-03-08T01:36:36.224Z,3.63
2019-03-08T01:39:17.697Z,3.40
2019-03-08T01:42:08.797Z,3.77
2019-03-08T01:45:45.737Z,3.50
2019-03-08T01:48:04.777Z,3.40
2019-03-08T01:53:34.853Z,2.90
2019-03-08T01:56:12.802Z,3.13
2019-03-08T01:58:54.050Z,3.27
2019-03-08T02:01:37.900Z,3.30
2019-03-08T02:04:35.046Z,2.80
2019-03-08T02:07:08.826Z,2.60
2019-03-08T02:09:56.460Z,2.97
2019-03-08T02:15:43.365Z,2.50
2019-03-08T02:18:14.357Z,2.30
2019-03-08T02:21:06.793Z,2.50
2019-03-08T02:23:45.701Z,2.63
2019-03-08T02:26:28.926Z,2.30
2019-03-08T02:31:53.490Z,2.30
2019-03-08T02:37:09.683Z,2.40
2019-03-08T02:40:12.023Z,2.53
2019-03-08T02:42:43.706Z,2.60
2019-03-08T02:45:34.585Z,2.50
2019-03-08T02:50:57.252Z,2.33
2019-03-08T02:53:41.675Z,2.30
2019-03-08T02:59:02.911Z,2.10
2019-03-08T03:01:43.854Z,2.27
2019-03-08T03:04:24.710Z,1.93
2019-03-08T03:09:51.059Z,2.30
2019-03-08T03:12:33.809Z,1.90
2019-03-08T03:15:16.868Z,2.03
2019-03-08T03:17:59.575Z,1.80
2019-03-08T03:20:40.679Z,2.50
2019-03-08T03:23:25.023Z,1.80
2019-03-08T03:26:08.726Z,1.93
2019-03-08T03:28:49.939Z,2.03
2019-03-08T03:31:32.611Z,2.00
2019-03-08T03:37:11.956Z,2.00
2019-03-08T03:39:53.642Z,1.80
2019-03-08T03:42:32.588Z,1.90
2019-03-08T03:45:14.108Z,1.90
2019-03-08T03:50:36.516Z,1.77
2019-03-08T03:53:21.189Z,1.97
2019-03-08T03:56:20.167Z,1.67
2019-03-08T03:59:03.477Z,2.00
2019-03-08T04:02:02.343Z,1.83
2019-03-08T04:04:34.053Z,1.60
2019-03-08T04:07:22.725Z,2.03
2019-03-08T04:10:11.436Z,2.10
2019-03-08T04:12:54.375Z,2.03
2019-03-08T04:15:43.151Z,2.03
2019-03-08T04:18:25.014Z,1.90
2019-03-08T04:23:46.566Z,1.80
2019-03-08T04:26:32.149Z,1.90
2019-03-08T04:29:11.242Z,2.10
2019-03-08T04:34:41.134Z,1.77
2019-03-08T04:37:20.153Z,2.20
2019-03-08T04:40:05.743Z,1.73
2019-03-08T04:42:49.340Z,1.83
2019-03-08T04:45:37.781Z,1.77
2019-03-08T04:48:14.914Z,1.90
2019-03-08T04:57:10.427Z,1.90
2019-03-08T04:59:49.079Z,1.60
2019-03-08T05:02:40.711Z,1.93
2019-03-08T05:08:25.697Z,1.70
2019-03-08T05:11:30.656Z,1.70
2019-03-08T05:14:00.294Z,1.90
2019-03-08T05:19:28.200Z,2.00
2019-03-08T05:24:51.043Z,1.70
2019-03-08T05:27:33.928Z,1.33
2019-03-08T05:30:47.467Z,1.50
2019-03-08T05:35:50.343Z,1.67
2019-03-08T05:47:03.313Z,1.40
2019-03-08T05:50:06.199Z,1.60
2019-03-08T05:52:39.164Z,1.50
2019-03-08T05:55:21.118Z,1.50
2019-03-08T05:58:01.303Z,1.80
2019-03-08T06:00:42.421Z,1.50
2019-03-08T06:03:26.601Z,1.70
2019-03-08T06:06:27.871Z,1.50
2019-03-08T06:11:46.321Z,2.00
2019-03-08T06:14:25.192Z,2.00
2019-03-08T06:19:53.683Z,1.93
2019-03-08T06:25:19.674Z,2.00
2019-03-08T06:28:02.895Z,1.80
2019-03-08T06:31:04.688Z,2.10
2019-03-08T06:39:01.562Z,1.60
2019-03-08T06:44:25.592Z,1.93
2019-03-08T06:47:07.827Z,1.73
2019-03-08T06:52:31.487Z,1.93
2019-03-08T06:55:19.736Z,1.90
2019-03-08T07:01:03.206Z,1.60
2019-03-08T07:03:47.411Z,1.87
2019-03-08T07:06:29.000Z,1.70
2019-03-08T07:09:10.222Z,1.87
2019-03-08T07:11:54.336Z,1.90
2019-03-08T07:14:41.415Z,2.10
2019-03-08T07:20:25.713Z,2.10
2019-03-08T07:26:12.033Z,1.83
2019-03-08T07:34:50.029Z,1.60
2019-03-08T07:39:59.043Z,2.03
2019-03-08T07:43:04.840Z,2.30
2019-03-08T07:46:18.895Z,1.73
2019-03-08T07:49:13.128Z,1.90
2019-03-08T07:52:07.057Z,2.17
2019-03-08T07:54:59.417Z,1.40
2019-03-08T07:57:59.715Z,1.70
2019-03-08T08:03:39.435Z,1.70
2019-03-08T08:06:57.707Z,1.50
2019-03-08T08:09:52.288Z,1.60
2019-03-08T08:15:20.458Z,1.40
2019-03-08T08:18:09.281Z,1.17
2019-03-08T08:21:19.991Z,1.20
2019-03-08T08:24:06.445Z,1.40
2019-03-08T08:27:00.456Z,1.27
2019-03-08T08:30:03.383Z,1.00
2019-03-08T08:32:44.555Z,1.17
2019-03-08T08:35:44.812Z,1.27
2019-03-08T08:38:48.280Z,1.30
2019-03-08T08:41:39.658Z,1.03
2019-03-08T08:47:20.480Z,1.20
2019-03-08T08:50:20.713Z,1.60
2019-03-08T08:53:26.899Z,0.90
2019-03-08T08:56:27.330Z,1.13
2019-03-08T08:59:27.378Z,1.20
2019-03-08T09:02:33.445Z,1.10
2019-03-08T09:05:33.996Z,1.40
2019-03-08T09:08:40.047Z,1.20
2019-03-08T09:14:40.479Z,1.40
2019-03-08T09:17:40.638Z,1.50
2019-03-08T09:20:46.416Z,1.00
2019-03-08T09:23:31.318Z,1.30
2019-03-08T09:27:01.146Z,1.20
2019-03-08T09:29:40.967Z,1.10
2019-03-08T09:35:05.925Z,1.07
2019-03-08T09:40:45.873Z,1.30
2019-03-08T09:43:45.700Z,1.10
2019-03-08T09:49:31.505Z,1.00
2019-03-08T09:55:10.191Z,1.20
2019-03-08T09:58:11.763Z,1.20
2019-03-08T10:01:03.229Z,0.80
2019-03-08T10:06:52.501Z,1.30
2019-03-08T10:12:27.115Z,1.10
2019-03-08T10:15:31.123Z,0.90
2019-03-08T10:18:32.609Z,1.10
2019-03-08T10:21:36.105Z,1.10
2019-03-08T10:24:23.280Z,1.10
2019-03-08T10:27:23.703Z,1.17
2019-03-08T10:30:13.950Z,1.13
2019-03-08T10:33:17.436Z,0.83
2019-03-08T10:36:17.232Z,1.10
2019-03-08T10:39:12.635Z,1.00
2019-03-08T10:42:12.460Z,1.10
2019-03-08T10:45:19.285Z,1.23
2019-03-08T10:48:23.036Z,1.10
2019-03-08T10:51:24.689Z,1.07
2019-03-08T10:54:20.198Z,1.13
2019-03-08T10:57:26.584Z,1.30
2019-03-08T11:00:29.066Z,1.10
2019-03-08T11:06:54.238Z,1.10
2019-03-08T11:09:39.320Z,1.03
2019-03-08T11:12:36.388Z,1.53
2019-03-08T11:15:39.306Z,1.17
2019-03-08T11:18:39.585Z,1.50
2019-03-08T11:21:18.024Z,1.20
2019-03-08T11:24:20.537Z,1.40
2019-03-08T11:30:30.441Z,1.03
2019-03-08T11:33:36.824Z,0.97
2019-03-08T11:36:26.725Z,1.10
2019-03-08T11:39:08.354Z,1.20
2019-03-08T11:44:32.970Z,1.43
2019-03-08T11:47:28.761Z,1.27
2019-03-08T11:50:23.987Z,1.10
2019-03-08T11:56:10.713Z,1.17
2019-03-08T11:59:19.914Z,1.10
2019-03-08T12:02:07.613Z,0.93
2019-03-08T12:04:59.642Z,0.97
2019-03-08T12:08:05.816Z,1.00
2019-03-08T12:11:08.777Z,1.03
2019-03-08T12:14:09.505Z,0.90
2019-03-08T12:17:01.181Z,1.60
2019-03-08T12:20:04.897Z,1.17
2019-03-08T12:23:05.259Z,1.10
2019-03-08T12:31:30.912Z,1.13
2019-03-08T12:34:38.331Z,0.80
2019-03-08T12:37:25.455Z,0.90
2019-03-08T12:43:39.782Z,1.30
2019-03-08T12:49:43.664Z,1.03
2019-03-08T12:52:37.316Z,1.33
2019-03-08T12:55:38.748Z,1.40
2019-03-08T12:58:46.008Z,1.10
2019-03-08T13:01:46.767Z,1.50
2019-03-08T13:04:34.654Z,1.10
2019-03-08T13:07:34.378Z,1.00
2019-03-08T13:12:55.510Z,0.73
2019-03-08T13:15:36.798Z,1.30
2019-03-08T13:18:17.844Z,1.30
2019-03-08T13:21:00.307Z,1.23
2019-03-08T13:23:44.590Z,1.57
2019-03-08T13:26:22.977Z,1.10
2019-03-08T13:29:08.351Z,1.23
2019-03-08T13:31:49.983Z,0.90
2019-03-08T13:34:35.433Z,1.10
2019-03-08T13:39:55.772Z,1.10
2019-03-08T13:42:38.280Z,1.20
2019-03-08T13:47:59.592Z,0.80
2019-03-08T13:50:42.007Z,1.30
2019-03-08T13:53:24.689Z,0.80
2019-03-08T13:56:07.530Z,0.80
2019-03-08T13:58:36.609Z,0.90
2019-03-08T14:01:24.640Z,0.80
2019-03-08T14:04:15.668Z,0.80
2019-03-08T14:06:58.204Z,0.90
2019-03-08T14:09:39.439Z,1.17
2019-03-08T14:12:20.642Z,1.03
2019-03-08T14:15:02.302Z,1.10
2019-03-08T14:20:23.884Z,1.20
2019-03-08T14:23:05.096Z,1.00
2019-03-08T14:25:43.527Z,1.03
2019-03-08T14:28:26.256Z,1.17
2019-03-08T14:34:16.789Z,1.03
2019-03-08T14:39:40.347Z,1.80
2019-03-08T14:48:05.986Z,1.40
2019-03-08T14:50:48.038Z,1.30
2019-03-08T14:53:32.920Z,1.27
2019-03-08T14:56:13.206Z,1.50
2019-03-08T14:58:59.986Z,0.90
2019-03-08T15:04:12.181Z,1.57
2019-03-08T15:07:04.654Z,1.50
2019-03-08T15:09:32.553Z,1.50
2019-03-08T15:12:02.285Z,1.70
2019-03-08T15:14:50.398Z,1.27
2019-03-08T15:17:39.249Z,1.33
2019-03-08T15:20:20.724Z,0.87
2019-03-08T15:23:04.365Z,0.90
2019-03-08T15:25:49.079Z,0.90
2019-03-08T15:28:29.015Z,1.40
2019-03-08T15:33:51.279Z,1.00
2019-03-08T15:36:32.691Z,0.77
2019-03-08T15:39:15.527Z,1.37
2019-03-08T15:41:58.586Z,0.80
2019-03-08T15:44:42.356Z,1.10
2019-03-08T15:50:04.525Z,1.60
2019-03-08T15:52:45.997Z,1.80
2019-03-08T15:55:28.485Z,1.83
2019-03-08T15:58:10.672Z,2.87
2019-03-08T16:00:51.879Z,2.30
2019-03-08T16:06:13.801Z,1.30
2019-03-08T16:14:20.533Z,1.20
2019-03-08T16:17:02.026Z,1.47
2019-03-08T16:19:43.955Z,1.27
2019-03-08T16:22:24.862Z,1.47
2019-03-08T16:25:06.828Z,1.17
2019-03-08T16:27:37.949Z,1.03
2019-03-08T16:30:30.665Z,1.47
2019-03-08T16:33:11.927Z,1.67
2019-03-08T16:39:05.417Z,2.40
2019-03-08T16:41:55.240Z,1.63
2019-03-08T16:44:43.951Z,3.57
2019-03-08T16:47:53.499Z,2.40
2019-03-08T16:50:56.061Z,3.60
2019-03-08T16:53:36.449Z,3.40
2019-03-08T16:59:19.383Z,2.13
2019-03-08T17:02:17.775Z,1.83
2019-03-08T17:04:56.631Z,2.53
2019-03-08T17:10:58.877Z,2.23
2019-03-08T17:16:45.343Z,2.20
2019-03-08T17:19:35.054Z,2.60
2019-03-08T17:22:35.476Z,2.37
2019-03-08T17:25:35.970Z,2.53
2019-03-08T17:33:51.659Z,2.67
2019-03-08T17:39:36.482Z,1.73
2019-03-08T17:45:43.971Z,2.10
2019-03-08T17:48:26.849Z,3.10
2019-03-08T17:51:23.609Z,3.00
2019-03-08T17:54:26.374Z,2.90
2019-03-08T17:57:28.377Z,2.60
2019-03-08T18:00:31.500Z,3.30
2019-03-08T18:06:19.898Z,2.90
2019-03-08T18:11:55.721Z,3.27
2019-03-08T18:14:59.030Z,2.80
2019-03-08T18:17:37.449Z,2.93
2019-03-08T18:20:37.393Z,3.07
2019-03-08T18:23:37.698Z,2.63
2019-03-08T18:29:08.657Z,2.77
2019-03-08T18:38:00.266Z,3.20
2019-03-08T18:40:47.904Z,3.37
2019-03-08T18:46:35.037Z,3.17
2019-03-08T18:49:24.733Z,3.13
2019-03-08T18:52:41.562Z,2.67
2019-03-08T18:55:32.729Z,4.10
2019-03-08T19:01:14.914Z,2.83
2019-03-08T19:04:07.580Z,3.23
2019-03-08T19:07:10.512Z,2.50
2019-03-08T19:10:11.052Z,3.17
2019-03-08T19:13:02.362Z,2.80
2019-03-08T19:15:54.265Z,3.00
2019-03-08T19:18:57.045Z,3.23
2019-03-08T19:22:11.305Z,3.30
2019-03-08T19:24:59.734Z,3.40
2019-03-08T19:27:50.181Z,3.03
2019-03-08T19:31:17.252Z,3.53
2019-03-08T19:34:12.263Z,3.03
2019-03-08T19:40:16.954Z,3.00
2019-03-08T19:43:17.100Z,2.20
2019-03-08T19:46:17.323Z,2.57
2019-03-08T19:49:17.854Z,3.23
2019-03-08T19:52:19.140Z,3.27
2019-03-08T19:57:58.046Z,3.00
2019-03-08T20:09:41.875Z,2.97
2019-03-08T20:12:45.215Z,3.97
2019-03-08T20:18:28.527Z,2.90
2019-03-08T20:21:10.093Z,4.50
2019-03-08T20:26:53.330Z,3.67
2019-03-08T20:29:45.141Z,3.43
2019-03-08T20:32:38.653Z,3.43
2019-03-08T20:36:14.196Z,3.53
2019-03-08T20:38:41.437Z,3.33
2019-03-08T20:41:38.560Z,2.87
2019-03-08T20:50:59.176Z,3.50
2019-03-08T20:57:22.622Z,2.90
2019-03-08T20:59:49.763Z,3.20
2019-03-08T21:06:04.334Z,3.07
2019-03-08T21:11:33.471Z,3.17
2019-03-08T21:17:00.199Z,2.87
2019-03-08T21:19:41.618Z,3.07
2019-03-08T21:28:32.053Z,3.30
2019-03-08T21:36:58.087Z,3.63
2019-03-08T21:39:55.969Z,5.17
2019-03-08T21:47:56.222Z,4.77
2019-03-08T21:50:30.531Z,4.10
2019-03-08T21:53:00.990Z,4.00
2019-03-08T21:55:32.226Z,4.23
2019-03-08T21:58:11.587Z,4.13
2019-03-08T22:00:48.971Z,4.83
2019-03-08T22:04:01.772Z,4.77
2019-03-08T22:12:23.034Z,4.37
2019-03-08T22:15:05.378Z,5.03
2019-03-08T22:17:41.079Z,4.23
2019-03-08T22:20:15.689Z,4.03
2019-03-08T22:53:05.916Z,4.23
2019-03-08T23:06:41.095Z,4.33
2019-03-08T23:09:51.471Z,3.60
2019-03-08T23:13:01.655Z,3.60
2019-03-08T23:15:21.005Z,4.13
2019-03-08T23:18:07.725Z,3.53
2019-03-08T23:22:09.824Z,2.53
2019-03-08T23:35:50.338Z,3.27
2019-03-08T23:47:11.156Z,3.27
2019-03-08T23:50:42.641Z,3.40
2019-03-08T23:53:53.937Z,3.53
2019-03-08T23:56:32.084Z,3.63
2019-03-08T23:59:15.414Z,3.33
